createdAt,value
2017-01-17T00:00:46.223Z,0
2017-01-17T00:01:59.795Z,0
2017-01-17T00:03:13.226Z,0
2017-01-17T00:04:26.713Z,0
2017-01-17T00:05:40.128Z,0
2017-01-17T00:06:55.356Z,0
2017-01-17T00:08:08.895Z,0
2017-01-17T00:09:22.323Z,0
2017-01-17T00:10:37.974Z,0
2017-01-17T00:11:51.474Z,0
2017-01-17T00:13:05.297Z,0
2017-01-17T00:14:18.782Z,0
2017-01-17T00:15:32.178Z,0
2017-01-17T00:16:45.622Z,0
2017-01-17T00:17:59.156Z,0
2017-01-17T00:19:12.866Z,0
2017-01-17T00:20:26.309Z,0
2017-01-17T00:21:39.719Z,0
2017-01-17T00:22:53.680Z,0
2017-01-17T00:24:07.364Z,0
2017-01-17T00:25:21.321Z,0
2017-01-17T00:26:34.766Z,0
2017-01-17T00:27:48.233Z,0
2017-01-17T00:29:02.180Z,0
2017-01-17T00:30:15.597Z,0
2017-01-17T00:31:29.318Z,0
2017-01-17T00:32:42.826Z,0
2017-01-17T00:33:56.366Z,0
2017-01-17T00:35:10.427Z,0
2017-01-17T00:36:23.910Z,0
2017-01-17T00:37:37.666Z,0
2017-01-17T00:38:51.175Z,0
2017-01-17T00:40:04.652Z,0
2017-01-17T00:41:18.119Z,0
2017-01-17T00:42:31.569Z,0
2017-01-17T00:43:45.266Z,0
2017-01-17T00:45:28.500Z,0
2017-01-17T00:46:41.945Z,0
2017-01-17T00:47:55.381Z,0
2017-01-17T00:49:09.510Z,0
2017-01-17T00:50:23.060Z,0
2017-01-17T00:51:36.488Z,0
2017-01-17T00:52:49.917Z,0
2017-01-17T00:54:03.390Z,0
2017-01-17T00:55:17.153Z,0
2017-01-17T00:56:30.700Z,0
2017-01-17T00:57:44.367Z,0
2017-01-17T00:58:57.807Z,0
2017-01-17T01:00:11.208Z,0
2017-01-17T01:01:25.048Z,0
2017-01-17T01:02:38.900Z,0
2017-01-17T01:03:52.334Z,0
2017-01-17T01:05:05.791Z,0
2017-01-17T01:06:19.287Z,0
2017-01-17T01:07:33.489Z,0
2017-01-17T01:08:46.932Z,0
2017-01-17T01:10:06.614Z,0
2017-01-17T01:11:20.035Z,0
2017-01-17T01:12:33.604Z,0
2017-01-17T01:13:47.371Z,0
2017-01-17T01:15:00.867Z,0
2017-01-17T01:16:14.310Z,0
2017-01-17T01:17:27.835Z,0
2017-01-17T01:18:41.259Z,0
2017-01-17T01:19:54.963Z,0
2017-01-17T01:21:08.408Z,0
2017-01-17T01:22:21.935Z,0
2017-01-17T01:23:35.809Z,0
2017-01-17T01:24:49.278Z,0
2017-01-17T01:26:03.014Z,0
2017-01-17T01:27:18.752Z,0
2017-01-17T01:28:32.152Z,0
2017-01-17T01:29:45.978Z,0
2017-01-17T01:30:59.421Z,0
2017-01-17T01:32:13.096Z,0
2017-01-17T01:33:27.061Z,0
2017-01-17T01:34:40.492Z,0
2017-01-17T01:35:53.973Z,0
2017-01-17T01:37:07.396Z,0
2017-01-17T01:38:21.198Z,0
2017-01-17T01:39:34.644Z,0
2017-01-17T01:40:48.064Z,0
2017-01-17T01:42:01.522Z,0
2017-01-17T01:43:15.397Z,0
2017-01-17T01:44:29.242Z,0
2017-01-17T01:45:42.652Z,0
2017-01-17T01:46:56.136Z,0
2017-01-17T01:48:10.068Z,0
2017-01-17T01:49:24.130Z,0
2017-01-17T01:50:37.821Z,0
2017-01-17T01:51:51.260Z,0
2017-01-17T01:53:04.680Z,0
2017-01-17T01:54:18.196Z,0
2017-01-17T01:55:31.761Z,0
2017-01-17T01:56:45.511Z,0
2017-01-17T01:57:58.927Z,0
2017-01-17T01:59:12.394Z,0
2017-01-17T02:00:25.891Z,0
2017-01-17T02:01:39.369Z,0
2017-01-17T02:02:53.119Z,0
2017-01-17T02:04:06.570Z,0
2017-01-17T02:05:20.108Z,0
2017-01-17T02:06:33.544Z,0
2017-01-17T02:07:46.948Z,0
2017-01-17T02:09:00.668Z,0
2017-01-17T02:10:14.280Z,0
2017-01-17T02:11:27.702Z,0
2017-01-17T02:12:41.153Z,0
2017-01-17T02:13:54.596Z,0
2017-01-17T02:15:08.433Z,0
2017-01-17T02:16:21.968Z,0
2017-01-17T02:17:35.406Z,0
2017-01-17T02:18:48.807Z,0
2017-01-17T02:20:02.278Z,0
2017-01-17T02:21:16.130Z,0
2017-01-17T02:22:29.610Z,0
2017-01-17T02:23:43.057Z,0
2017-01-17T02:24:56.565Z,0
2017-01-17T02:26:10.108Z,0
2017-01-17T02:27:23.820Z,0
2017-01-17T02:28:37.223Z,0
2017-01-17T02:29:50.629Z,0
2017-01-17T02:31:04.069Z,0
2017-01-17T02:32:18.802Z,0
2017-01-17T02:33:32.541Z,0
2017-01-17T02:34:45.978Z,0
2017-01-17T02:35:59.445Z,0
2017-01-17T02:37:12.928Z,0
2017-01-17T02:38:26.336Z,0
2017-01-17T02:39:40.023Z,0
2017-01-17T02:40:53.423Z,0
2017-01-17T02:42:06.967Z,0
2017-01-17T02:43:22.534Z,0
2017-01-17T02:44:36.014Z,0
2017-01-17T02:45:49.733Z,0
2017-01-17T02:47:03.257Z,0
2017-01-17T02:48:17.124Z,0
2017-01-17T02:49:30.975Z,0
2017-01-17T02:50:44.448Z,0
2017-01-17T02:51:58.194Z,0
2017-01-17T02:53:11.700Z,0
2017-01-17T02:54:25.144Z,0
2017-01-17T02:55:39.152Z,0
2017-01-17T02:56:52.634Z,0
2017-01-17T02:58:06.450Z,0
2017-01-17T02:59:39.046Z,0
2017-01-17T03:00:52.488Z,0
2017-01-17T03:02:05.912Z,0
2017-01-17T03:03:19.780Z,0
2017-01-17T03:04:33.240Z,0
2017-01-17T03:05:46.639Z,0
2017-01-17T03:07:00.126Z,0
2017-01-17T03:08:13.643Z,0
2017-01-17T03:09:27.370Z,0
2017-01-17T03:10:40.766Z,0
2017-01-17T03:11:54.185Z,0
2017-01-17T03:13:07.604Z,0
2017-01-17T03:14:21.141Z,0
2017-01-17T03:15:34.864Z,0
2017-01-17T03:16:48.317Z,0
2017-01-17T03:18:01.784Z,0
2017-01-17T03:19:15.326Z,0
2017-01-17T03:20:28.767Z,0
2017-01-17T03:21:42.492Z,0
2017-01-17T03:22:56.309Z,0
2017-01-17T03:24:09.818Z,0
2017-01-17T03:25:23.254Z,0
2017-01-17T03:26:36.671Z,0
2017-01-17T03:27:50.364Z,0
2017-01-17T03:29:03.795Z,0
2017-01-17T03:30:18.486Z,0
2017-01-17T03:31:32.362Z,0
2017-01-17T03:32:45.930Z,0
2017-01-17T03:33:59.756Z,0
2017-01-17T03:35:13.276Z,0
2017-01-17T03:36:27.119Z,0
2017-01-17T03:37:46.806Z,0
2017-01-17T03:39:00.606Z,0
2017-01-17T03:40:14.432Z,0
2017-01-17T03:41:27.883Z,0
2017-01-17T03:42:41.318Z,0
2017-01-17T03:43:55.144Z,0
2017-01-17T03:45:09.044Z,0
2017-01-17T03:46:22.711Z,0
2017-01-17T03:47:36.111Z,0
2017-01-17T03:48:49.527Z,0
2017-01-17T03:50:02.934Z,0
2017-01-17T03:51:16.535Z,0
2017-01-17T03:52:30.241Z,0
2017-01-17T03:53:43.682Z,0
2017-01-17T03:54:57.123Z,0
2017-01-17T03:56:11.878Z,0
2017-01-17T03:57:25.320Z,0
2017-01-17T03:58:39.142Z,0
2017-01-17T03:59:54.782Z,0
2017-01-17T04:01:08.333Z,0
2017-01-17T04:02:22.213Z,0
2017-01-17T04:03:35.661Z,0
2017-01-17T04:04:49.357Z,0
2017-01-17T04:06:02.922Z,0
2017-01-17T04:07:16.356Z,0
2017-01-17T04:08:30.262Z,0
2017-01-17T04:09:44.087Z,0
2017-01-17T04:10:57.799Z,0
2017-01-17T04:12:11.368Z,0
2017-01-17T04:13:24.801Z,0
2017-01-17T04:14:38.240Z,0
2017-01-17T04:15:52.124Z,0
2017-01-17T04:17:05.972Z,0
2017-01-17T04:18:19.519Z,0
2017-01-17T04:19:32.944Z,0
2017-01-17T04:20:46.387Z,0
2017-01-17T04:21:59.842Z,0
2017-01-17T04:23:13.683Z,0
2017-01-17T04:24:27.246Z,0
2017-01-17T04:25:40.680Z,0
2017-01-17T04:26:54.110Z,0
2017-01-17T04:28:08.066Z,0
2017-01-17T04:29:21.829Z,0
2017-01-17T04:30:35.330Z,0
2017-01-17T04:31:48.894Z,0
2017-01-17T04:33:09.149Z,0
2017-01-17T04:34:22.550Z,0
2017-01-17T04:35:36.277Z,0
2017-01-17T04:36:55.999Z,0
2017-01-17T04:38:09.642Z,0
2017-01-17T04:39:23.141Z,0
2017-01-17T04:40:36.541Z,0
2017-01-17T04:41:50.264Z,0
2017-01-17T04:43:03.775Z,0
2017-01-17T04:44:17.222Z,0
2017-01-17T04:45:30.632Z,0
2017-01-17T04:46:44.103Z,0
2017-01-17T04:47:57.804Z,0
2017-01-17T04:49:11.715Z,0
2017-01-17T04:50:25.142Z,0
2017-01-17T04:51:38.599Z,0
2017-01-17T04:52:52.456Z,0
2017-01-17T04:54:06.291Z,0
2017-01-17T04:55:19.746Z,0
2017-01-17T04:56:33.191Z,0
2017-01-17T04:57:46.695Z,0
2017-01-17T04:59:00.090Z,0
2017-01-17T05:00:15.098Z,0
2017-01-17T05:01:28.923Z,0
2017-01-17T05:02:42.389Z,0
2017-01-17T05:03:55.816Z,0
2017-01-17T05:05:09.823Z,0
2017-01-17T05:06:23.527Z,0
2017-01-17T05:07:36.965Z,0
2017-01-17T05:08:50.415Z,0
2017-01-17T05:10:05.204Z,0
2017-01-17T05:11:18.624Z,0
2017-01-17T05:12:32.356Z,0
2017-01-17T05:13:45.875Z,0
2017-01-17T05:14:59.392Z,0
2017-01-17T05:16:16.279Z,0
2017-01-17T05:17:29.717Z,0
2017-01-17T05:18:43.441Z,0
2017-01-17T05:19:56.876Z,0
2017-01-17T05:21:10.429Z,0
2017-01-17T05:22:24.466Z,0
2017-01-17T05:23:37.897Z,0
2017-01-17T05:24:51.593Z,0
2017-01-17T05:26:05.697Z,0
2017-01-17T05:27:19.133Z,0
2017-01-17T05:28:32.573Z,0
2017-01-17T05:29:46.027Z,0
2017-01-17T05:31:00.253Z,0
2017-01-17T05:32:13.704Z,0
2017-01-17T05:33:27.116Z,0
2017-01-17T05:34:40.558Z,0
2017-01-17T05:35:53.984Z,0
2017-01-17T05:37:07.774Z,0
2017-01-17T05:38:21.228Z,0
2017-01-17T05:39:34.653Z,0
2017-01-17T05:40:48.101Z,0
2017-01-17T05:42:01.804Z,0
2017-01-17T05:43:15.951Z,0
2017-01-17T05:44:29.376Z,0
2017-01-17T05:45:43.218Z,0
2017-01-17T05:46:56.731Z,0
2017-01-17T05:48:11.386Z,0
2017-01-17T05:49:25.126Z,0
2017-01-17T05:50:38.900Z,0
2017-01-17T05:51:52.817Z,0
2017-01-17T05:53:07.543Z,0
2017-01-17T05:54:20.953Z,0
2017-01-17T05:55:35.523Z,0
2017-01-17T05:56:48.975Z,0
2017-01-17T05:58:02.562Z,0
2017-01-17T05:59:16.115Z,0
2017-01-17T06:00:30.029Z,0
2017-01-17T06:01:43.750Z,0
2017-01-17T06:02:58.090Z,0
2017-01-17T06:04:11.577Z,0
2017-01-17T06:05:25.104Z,0
2017-01-17T06:06:38.523Z,0
2017-01-17T06:07:53.042Z,0
2017-01-17T06:09:07.769Z,0
2017-01-17T06:10:21.315Z,0
2017-01-17T06:11:34.872Z,0
2017-01-17T06:12:48.301Z,0
2017-01-17T06:14:02.161Z,0
2017-01-17T06:15:15.658Z,0
2017-01-17T06:16:29.193Z,0
2017-01-17T06:17:42.677Z,0
2017-01-17T06:18:56.296Z,0
2017-01-17T06:20:11.199Z,0
2017-01-17T06:21:24.708Z,0
2017-01-17T06:22:38.196Z,0
2017-01-17T06:23:51.748Z,0
2017-01-17T06:25:05.292Z,0
2017-01-17T06:26:19.209Z,0
2017-01-17T06:27:32.715Z,0
2017-01-17T06:28:46.153Z,0
2017-01-17T06:29:59.784Z,0
2017-01-17T06:31:13.314Z,0
2017-01-17T06:32:29.280Z,0
2017-01-17T06:33:42.866Z,0
2017-01-17T06:34:56.359Z,0
2017-01-17T06:36:09.797Z,0
2017-01-17T06:37:23.240Z,0
2017-01-17T06:38:37.045Z,0
2017-01-17T06:39:51.801Z,0
2017-01-17T06:41:05.342Z,0
2017-01-17T06:42:18.859Z,0
2017-01-17T06:43:32.458Z,0
2017-01-17T06:44:46.731Z,0
2017-01-17T06:46:01.636Z,0
2017-01-17T06:47:15.228Z,0
2017-01-17T06:48:28.698Z,0
2017-01-17T06:49:42.104Z,0
2017-01-17T06:50:56.047Z,0
2017-01-17T06:52:10.274Z,0
2017-01-17T06:53:23.708Z,0
2017-01-17T06:54:37.146Z,0
2017-01-17T06:55:50.638Z,0
2017-01-17T06:57:04.403Z,0
2017-01-17T06:58:19.076Z,0
2017-01-17T06:59:32.522Z,0
2017-01-17T07:00:46.382Z,0
2017-01-17T07:01:59.896Z,0
2017-01-17T07:03:13.610Z,0
2017-01-17T07:04:27.074Z,0
2017-01-17T07:05:40.477Z,0
2017-01-17T07:06:54.061Z,0
2017-01-17T07:08:07.872Z,0
2017-01-17T07:09:24.691Z,0
2017-01-17T07:10:40.517Z,0
2017-01-17T07:11:54.064Z,0
2017-01-17T07:13:07.489Z,0
2017-01-17T07:14:20.948Z,0
2017-01-17T07:15:35.125Z,0
2017-01-17T07:16:48.628Z,0
2017-01-17T07:18:02.125Z,0
2017-01-17T07:19:15.993Z,0
2017-01-17T07:20:29.440Z,0
2017-01-17T07:21:43.210Z,0
2017-01-17T07:22:56.956Z,0
2017-01-17T07:24:10.458Z,0
2017-01-17T07:25:23.911Z,0
2017-01-17T07:26:37.413Z,0
2017-01-17T07:27:51.201Z,0
2017-01-17T07:29:04.690Z,0
2017-01-17T07:30:18.144Z,5
2017-01-17T07:31:31.582Z,5
2017-01-17T07:32:45.978Z,5
2017-01-17T07:34:00.199Z,5
2017-01-17T07:35:13.709Z,5
2017-01-17T07:36:27.826Z,5
2017-01-17T07:37:41.330Z,5
2017-01-17T07:38:55.267Z,5
2017-01-17T07:40:08.985Z,5
2017-01-17T07:41:22.849Z,5
2017-01-17T07:42:36.325Z,10
2017-01-17T07:43:49.942Z,10
2017-01-17T07:45:03.408Z,10
2017-01-17T07:46:17.184Z,10
2017-01-17T07:47:40.967Z,10
2017-01-17T07:48:57.260Z,10
2017-01-17T07:50:10.856Z,10
2017-01-17T07:51:25.062Z,10
2017-01-17T07:52:38.991Z,10
2017-01-17T07:53:52.906Z,15
2017-01-17T07:55:06.496Z,15
2017-01-17T07:56:20.002Z,15
2017-01-17T07:57:46.497Z,15
2017-01-17T07:59:00.007Z,20
2017-01-17T08:00:13.634Z,20
2017-01-17T08:01:27.327Z,20
2017-01-17T08:02:40.789Z,20
2017-01-17T08:03:54.784Z,25
2017-01-17T08:05:08.232Z,25
2017-01-17T08:06:21.687Z,25
2017-01-17T08:07:35.205Z,25
2017-01-17T08:08:48.699Z,30
2017-01-17T08:10:02.627Z,30
2017-01-17T08:11:16.069Z,30
2017-01-17T08:12:29.796Z,35
2017-01-17T08:13:44.269Z,35
2017-01-17T08:14:58.305Z,35
2017-01-17T08:16:12.541Z,35
2017-01-17T08:17:27.073Z,40
2017-01-17T08:18:41.319Z,45
2017-01-17T08:19:57.286Z,50
2017-01-17T08:21:11.515Z,50
2017-01-17T08:22:25.716Z,50
2017-01-17T08:23:39.241Z,50
2017-01-17T08:24:52.783Z,55
2017-01-17T08:26:06.337Z,55
2017-01-17T08:27:20.674Z,55
2017-01-17T08:28:34.668Z,55
2017-01-17T08:29:48.261Z,55
2017-01-17T08:31:01.726Z,55
2017-01-17T08:32:15.241Z,55
2017-01-17T08:33:28.706Z,55
2017-01-17T08:34:42.440Z,55
2017-01-17T08:35:56.014Z,55
2017-01-17T08:37:09.572Z,55
2017-01-17T08:38:23.105Z,60
2017-01-17T08:39:36.611Z,65
2017-01-17T08:40:51.643Z,65
2017-01-17T08:42:05.557Z,65
2017-01-17T08:43:19.028Z,70
2017-01-17T08:44:32.498Z,70
2017-01-17T08:45:46.066Z,70
2017-01-17T08:46:59.939Z,70
2017-01-17T08:48:13.393Z,70
2017-01-17T08:49:26.944Z,65
2017-01-17T08:50:40.467Z,65
2017-01-17T08:51:54.050Z,65
2017-01-17T08:53:07.986Z,65
2017-01-17T08:54:22.166Z,65
2017-01-17T08:55:36.437Z,65
2017-01-17T08:56:50.075Z,65
2017-01-17T08:58:03.484Z,65
2017-01-17T08:59:17.258Z,65
2017-01-17T09:00:30.710Z,75
2017-01-17T09:01:44.494Z,75
2017-01-17T09:02:58.793Z,75
2017-01-17T09:04:12.285Z,70
2017-01-17T09:05:28.811Z,75
2017-01-17T09:06:43.569Z,75
2017-01-17T09:08:01.376Z,80
2017-01-17T09:09:21.550Z,80
2017-01-17T09:10:42.451Z,85
2017-01-17T09:12:01.846Z,90
2017-01-17T09:13:21.348Z,90
2017-01-17T09:14:36.664Z,90
2017-01-17T09:15:50.955Z,85
2017-01-17T09:17:08.295Z,85
2017-01-17T09:18:22.233Z,85
2017-01-17T09:19:36.140Z,85
2017-01-17T09:20:49.922Z,85
2017-01-17T09:22:06.620Z,90
2017-01-17T09:23:21.094Z,90
2017-01-17T09:24:35.120Z,90
2017-01-17T09:25:51.041Z,90
2017-01-17T09:27:07.336Z,80
2017-01-17T09:28:21.128Z,75
2017-01-17T09:29:35.980Z,80
2017-01-17T09:30:50.322Z,75
2017-01-17T09:32:06.366Z,75
2017-01-17T09:33:22.977Z,75
2017-01-17T09:34:42.253Z,80
2017-01-17T09:35:58.908Z,85
2017-01-17T09:37:16.080Z,75
2017-01-17T09:38:32.250Z,75
2017-01-17T09:39:46.375Z,80
2017-01-17T09:41:01.881Z,80
2017-01-17T09:42:17.188Z,80
2017-01-17T09:43:33.180Z,80
2017-01-17T09:44:47.217Z,80
2017-01-17T09:46:01.511Z,80
2017-01-17T09:47:15.870Z,80
2017-01-17T09:48:30.467Z,80
2017-01-17T09:49:44.407Z,85
2017-01-17T09:50:58.005Z,85
2017-01-17T09:52:12.865Z,90
2017-01-17T09:53:26.333Z,90
2017-01-17T09:54:42.260Z,85
2017-01-17T09:55:56.663Z,85
2017-01-17T09:57:11.339Z,95
2017-01-17T09:58:25.723Z,95
2017-01-17T09:59:40.195Z,100
2017-01-17T10:00:53.621Z,85
2017-01-17T10:02:07.376Z,90
2017-01-17T10:03:21.410Z,95
2017-01-17T10:04:35.230Z,95
2017-01-17T10:05:48.658Z,90
2017-01-17T10:07:02.116Z,100
2017-01-17T10:08:15.886Z,100
2017-01-17T10:09:29.299Z,100
2017-01-17T10:10:43.190Z,100
2017-01-17T10:11:56.625Z,100
2017-01-17T10:13:10.113Z,100
2017-01-17T10:14:24.863Z,100
2017-01-17T10:15:38.950Z,95
2017-01-17T10:16:53.509Z,100
2017-01-17T10:18:06.962Z,105
2017-01-17T10:19:21.703Z,105
2017-01-17T10:20:35.694Z,110
2017-01-17T10:21:49.170Z,110
2017-01-17T10:23:06.369Z,110
2017-01-17T10:24:21.646Z,105
2017-01-17T10:25:35.128Z,105
2017-01-17T10:26:49.577Z,105
2017-01-17T10:28:03.139Z,110
2017-01-17T10:29:17.100Z,115
2017-01-17T10:30:30.506Z,115
2017-01-17T10:31:44.662Z,115
2017-01-17T10:32:59.552Z,115
2017-01-17T10:34:13.759Z,115
2017-01-17T10:35:27.978Z,115
2017-01-17T10:36:41.460Z,110
2017-01-17T10:37:54.947Z,105
2017-01-17T10:39:08.857Z,100
2017-01-17T10:40:23.610Z,100
2017-01-17T10:41:37.492Z,100
2017-01-17T10:42:50.939Z,105
2017-01-17T10:44:04.409Z,105
2017-01-17T10:45:18.261Z,100
2017-01-17T10:46:31.707Z,100
2017-01-17T10:47:45.623Z,100
2017-01-17T10:48:59.080Z,100
2017-01-17T10:50:12.632Z,105
2017-01-17T10:51:27.289Z,100
2017-01-17T10:52:40.746Z,100
2017-01-17T10:53:54.178Z,100
2017-01-17T10:55:07.650Z,100
2017-01-17T10:56:21.187Z,100
2017-01-17T10:57:34.938Z,100
2017-01-17T10:58:48.427Z,100
2017-01-17T11:00:01.934Z,100
2017-01-17T11:01:15.608Z,100
2017-01-17T11:02:29.042Z,100
2017-01-17T11:03:42.815Z,100
2017-01-17T11:04:56.424Z,100
2017-01-17T11:06:09.889Z,100
2017-01-17T11:07:23.426Z,100
2017-01-17T11:08:36.882Z,100
2017-01-17T11:09:51.353Z,100
2017-01-17T11:11:04.793Z,100
2017-01-17T11:12:19.524Z,100
2017-01-17T11:13:33.406Z,100
2017-01-17T11:14:46.865Z,100
2017-01-17T11:16:00.634Z,100
2017-01-17T11:17:14.535Z,100
2017-01-17T11:18:27.969Z,100
2017-01-17T11:19:41.523Z,100
2017-01-17T11:20:54.952Z,100
2017-01-17T11:22:08.650Z,100
2017-01-17T11:23:23.546Z,100
2017-01-17T11:24:37.675Z,100
2017-01-17T11:25:51.181Z,100
2017-01-17T11:27:04.709Z,100
2017-01-17T11:28:19.664Z,100
2017-01-17T11:29:33.586Z,100
2017-01-17T11:30:47.212Z,100
2017-01-17T11:32:00.679Z,100
2017-01-17T11:33:14.160Z,100
2017-01-17T11:34:28.264Z,100
2017-01-17T11:35:41.690Z,100
2017-01-17T11:36:55.136Z,100
2017-01-17T11:38:08.961Z,100
2017-01-17T11:39:24.620Z,100
2017-01-17T11:40:38.380Z,100
2017-01-17T11:41:52.201Z,100
2017-01-17T11:43:05.642Z,100
2017-01-17T11:44:19.083Z,100
2017-01-17T11:45:32.605Z,100
2017-01-17T11:46:46.364Z,100
2017-01-17T11:47:59.817Z,100
2017-01-17T11:49:13.290Z,100
2017-01-17T11:50:26.884Z,100
2017-01-17T11:51:41.594Z,100
2017-01-17T11:52:55.322Z,100
2017-01-17T11:54:08.759Z,100
2017-01-17T11:55:22.194Z,100
2017-01-17T11:56:36.158Z,100
2017-01-17T11:57:49.636Z,100
2017-01-17T11:59:03.399Z,100
2017-01-17T12:00:17.234Z,100
2017-01-17T12:01:31.956Z,100
2017-01-17T12:02:45.446Z,100
2017-01-17T12:03:58.940Z,100
2017-01-17T12:05:13.544Z,100
2017-01-17T12:06:27.031Z,100
2017-01-17T12:07:40.479Z,95
2017-01-17T12:08:54.014Z,100
2017-01-17T12:10:07.467Z,100
2017-01-17T12:11:21.179Z,100
2017-01-17T12:12:34.695Z,100
2017-01-17T12:13:48.146Z,100
2017-01-17T12:15:01.563Z,100
2017-01-17T12:16:15.109Z,100
2017-01-17T12:17:28.917Z,100
2017-01-17T12:18:42.720Z,100
2017-01-17T12:19:56.170Z,100
2017-01-17T12:21:09.583Z,100
2017-01-17T12:22:23.378Z,100
2017-01-17T12:23:37.597Z,100
2017-01-17T12:24:51.006Z,100
2017-01-17T12:26:04.466Z,100
2017-01-17T12:27:17.946Z,100
2017-01-17T12:28:31.429Z,100
2017-01-17T12:29:45.426Z,100
2017-01-17T12:30:58.892Z,100
2017-01-17T12:32:12.802Z,100
2017-01-17T12:33:26.303Z,100
2017-01-17T12:34:39.740Z,100
2017-01-17T12:35:53.600Z,100
2017-01-17T12:37:07.042Z,100
2017-01-17T12:38:20.516Z,100
2017-01-17T12:39:34.014Z,100
2017-01-17T12:40:47.468Z,100
2017-01-17T12:42:01.405Z,95
2017-01-17T12:43:15.244Z,95
2017-01-17T12:44:28.839Z,100
2017-01-17T12:45:42.299Z,100
2017-01-17T12:46:55.782Z,105
2017-01-17T12:48:09.522Z,100
2017-01-17T12:49:22.992Z,100
2017-01-17T12:50:36.434Z,100
2017-01-17T12:51:50.346Z,100
2017-01-17T12:53:03.770Z,100
2017-01-17T12:54:17.593Z,100
2017-01-17T12:55:33.354Z,95
2017-01-17T12:56:46.816Z,105
2017-01-17T12:58:00.293Z,105
2017-01-17T12:59:13.767Z,105
2017-01-17T13:00:27.572Z,105
2017-01-17T13:01:41.048Z,105
2017-01-17T13:02:54.504Z,105
2017-01-17T13:04:08.764Z,100
2017-01-17T13:05:23.749Z,100
2017-01-17T13:06:37.479Z,110
2017-01-17T13:07:50.941Z,115
2017-01-17T13:09:04.397Z,115
2017-01-17T13:10:17.888Z,105
2017-01-17T13:11:31.808Z,105
2017-01-17T13:12:45.533Z,105
2017-01-17T13:13:58.990Z,105
2017-01-17T13:15:12.447Z,105
2017-01-17T13:16:26.369Z,110
2017-01-17T13:17:39.811Z,110
2017-01-17T13:18:53.576Z,105
2017-01-17T13:20:10.052Z,105
2017-01-17T13:21:23.686Z,110
2017-01-17T13:22:49.880Z,110
2017-01-17T13:24:03.395Z,105
2017-01-17T13:25:17.218Z,100
2017-01-17T13:26:30.745Z,100
2017-01-17T13:27:44.654Z,100
2017-01-17T13:28:58.197Z,105
2017-01-17T13:30:12.059Z,105
2017-01-17T13:31:27.036Z,105
2017-01-17T13:32:40.494Z,100
2017-01-17T13:33:53.995Z,100
2017-01-17T13:35:07.879Z,105
2017-01-17T13:36:21.370Z,100
2017-01-17T13:37:35.207Z,100
2017-01-17T13:38:48.668Z,100
2017-01-17T13:40:02.960Z,100
2017-01-17T13:41:16.424Z,95
2017-01-17T13:42:29.922Z,95
2017-01-17T13:43:43.715Z,100
2017-01-17T13:44:57.197Z,100
2017-01-17T13:46:10.903Z,100
2017-01-17T13:47:24.443Z,100
2017-01-17T13:48:37.901Z,95
2017-01-17T13:49:51.658Z,95
2017-01-17T13:51:05.142Z,95
2017-01-17T13:52:18.872Z,95
2017-01-17T13:53:32.406Z,95
2017-01-17T13:54:46.251Z,95
2017-01-17T13:56:00.081Z,90
2017-01-17T13:57:13.564Z,90
2017-01-17T13:58:27.499Z,90
2017-01-17T13:59:40.976Z,90
2017-01-17T14:00:54.574Z,90
2017-01-17T14:02:08.348Z,85
2017-01-17T14:03:21.831Z,85
2017-01-17T14:04:35.347Z,80
2017-01-17T14:05:48.758Z,80
2017-01-17T14:07:02.248Z,75
2017-01-17T14:08:16.038Z,75
2017-01-17T14:09:29.578Z,80
2017-01-17T14:10:43.044Z,80
2017-01-17T14:11:58.734Z,80
2017-01-17T14:13:12.719Z,80
2017-01-17T14:14:26.565Z,80
2017-01-17T14:15:40.932Z,80
2017-01-17T14:16:54.388Z,75
2017-01-17T14:18:07.839Z,70
2017-01-17T14:19:21.660Z,70
2017-01-17T14:20:35.417Z,75
2017-01-17T14:21:49.308Z,75
2017-01-17T14:23:02.749Z,75
2017-01-17T14:24:16.754Z,75
2017-01-17T14:25:30.464Z,75
2017-01-17T14:26:44.192Z,75
2017-01-17T14:27:58.115Z,75
2017-01-17T14:29:11.569Z,70
2017-01-17T14:30:25.098Z,70
2017-01-17T14:31:38.531Z,70
2017-01-17T14:32:52.316Z,70
2017-01-17T14:34:05.779Z,70
2017-01-17T14:35:19.291Z,70
2017-01-17T14:36:32.756Z,70
2017-01-17T14:37:46.206Z,65
2017-01-17T14:38:59.992Z,65
2017-01-17T14:40:13.479Z,65
2017-01-17T14:41:26.966Z,65
2017-01-17T14:42:40.460Z,65
2017-01-17T14:43:53.890Z,60
2017-01-17T14:45:07.680Z,60
2017-01-17T14:46:21.577Z,60
2017-01-17T14:47:35.067Z,60
2017-01-17T14:48:48.508Z,60
2017-01-17T14:50:02.019Z,60
2017-01-17T14:51:15.773Z,55
2017-01-17T14:52:29.256Z,55
2017-01-17T14:53:42.771Z,55
2017-01-17T14:54:56.274Z,55
2017-01-17T14:56:10.172Z,55
2017-01-17T14:57:24.441Z,50
2017-01-17T14:58:37.981Z,50
2017-01-17T14:59:51.476Z,50
2017-01-17T15:01:04.917Z,50
2017-01-17T15:02:18.525Z,50
2017-01-17T15:03:32.457Z,45
2017-01-17T15:04:46.559Z,45
2017-01-17T15:06:00.098Z,45
2017-01-17T15:07:13.597Z,45
2017-01-17T15:08:27.057Z,45
2017-01-17T15:09:40.795Z,40
2017-01-17T15:10:54.248Z,40
2017-01-17T15:12:07.742Z,40
2017-01-17T15:13:21.258Z,40
2017-01-17T15:14:34.786Z,35
2017-01-17T15:15:48.575Z,35
2017-01-17T15:17:02.113Z,35
2017-01-17T15:18:15.586Z,35
2017-01-17T15:19:29.016Z,35
2017-01-17T15:20:42.433Z,30
2017-01-17T15:21:56.269Z,30
2017-01-17T15:23:09.789Z,30
2017-01-17T15:24:23.267Z,30
2017-01-17T15:25:36.907Z,25
2017-01-17T15:26:50.431Z,25
2017-01-17T15:28:06.554Z,25
2017-01-17T15:29:20.102Z,25
2017-01-17T15:30:33.549Z,20
2017-01-17T15:31:46.974Z,20
2017-01-17T15:33:00.416Z,20
2017-01-17T15:34:14.302Z,20
2017-01-17T15:35:27.820Z,20
2017-01-17T15:36:41.258Z,15
2017-01-17T15:37:54.859Z,15
2017-01-17T15:39:08.541Z,15
2017-01-17T15:40:22.293Z,15
2017-01-17T15:41:36.301Z,15
2017-01-17T15:42:49.699Z,10
2017-01-17T15:44:03.531Z,10
2017-01-17T15:45:17.053Z,10
2017-01-17T15:46:30.990Z,10
2017-01-17T15:47:44.462Z,10
2017-01-17T15:48:57.932Z,5
2017-01-17T15:50:11.626Z,5
2017-01-17T15:51:25.199Z,5
2017-01-17T15:52:39.858Z,5
2017-01-17T15:53:53.541Z,5
2017-01-17T15:55:12.422Z,5
2017-01-17T15:56:26.652Z,5
2017-01-17T15:57:40.082Z,5
2017-01-17T15:58:53.901Z,0
2017-01-17T16:00:08.841Z,0
2017-01-17T16:01:22.350Z,0
2017-01-17T16:02:35.888Z,0
2017-01-17T16:03:49.405Z,0
2017-01-17T16:05:04.210Z,0
2017-01-17T16:06:17.728Z,0
2017-01-17T16:07:31.318Z,0
2017-01-17T16:08:45.326Z,0
2017-01-17T16:09:59.034Z,0
2017-01-17T16:11:14.488Z,0
2017-01-17T16:12:27.960Z,0
2017-01-17T16:13:41.624Z,0
2017-01-17T16:14:55.249Z,0
2017-01-17T16:16:08.808Z,0
2017-01-17T16:17:22.737Z,0
2017-01-17T16:18:36.729Z,0
2017-01-17T16:19:50.617Z,0
2017-01-17T16:21:04.201Z,0
2017-01-17T16:22:17.687Z,0
2017-01-17T16:23:31.464Z,0
2017-01-17T16:24:44.981Z,0
2017-01-17T16:25:58.551Z,0
2017-01-17T16:27:13.329Z,0
2017-01-17T16:28:26.799Z,0
2017-01-17T16:29:40.580Z,0
2017-01-17T16:30:54.079Z,0
2017-01-17T16:32:07.952Z,0
2017-01-17T16:33:21.508Z,0
2017-01-17T16:34:35.143Z,0
2017-01-17T16:35:49.381Z,0
2017-01-17T16:37:02.919Z,0
2017-01-17T16:38:17.764Z,0
2017-01-17T16:39:31.682Z,0
2017-01-17T16:40:45.215Z,0
2017-01-17T16:41:58.975Z,0
2017-01-17T16:43:13.920Z,0
2017-01-17T16:44:31.779Z,0
2017-01-17T16:45:45.467Z,0
2017-01-17T16:46:59.372Z,0
2017-01-17T16:48:14.342Z,0
2017-01-17T16:49:28.280Z,0
2017-01-17T16:50:42.800Z,0
2017-01-17T16:51:56.287Z,0
2017-01-17T16:53:10.422Z,0
2017-01-17T16:54:25.488Z,0
2017-01-17T16:55:39.144Z,0
2017-01-17T16:56:52.687Z,0
2017-01-17T16:58:06.313Z,0
2017-01-17T16:59:19.912Z,0
2017-01-17T17:00:33.712Z,0
2017-01-17T17:01:47.259Z,0
2017-01-17T17:03:01.137Z,0
2017-01-17T17:04:14.721Z,0
2017-01-17T17:05:28.229Z,0
2017-01-17T17:06:42.427Z,0
2017-01-17T17:07:55.907Z,0
2017-01-17T17:09:09.454Z,0
2017-01-17T17:10:22.923Z,0
2017-01-17T17:11:36.414Z,0
2017-01-17T17:12:50.261Z,0
2017-01-17T17:14:03.775Z,0
2017-01-17T17:15:17.345Z,0
2017-01-17T17:16:30.789Z,0
2017-01-17T17:17:44.238Z,0
2017-01-17T17:18:58.072Z,0
2017-01-17T17:20:11.670Z,0
2017-01-17T17:21:25.130Z,0
2017-01-17T17:22:38.677Z,0
2017-01-17T17:23:52.158Z,0
2017-01-17T17:25:05.988Z,0
2017-01-17T17:26:19.948Z,0
2017-01-17T17:27:33.445Z,0
2017-01-17T17:28:46.947Z,0
2017-01-17T17:30:00.535Z,0
2017-01-17T17:31:14.630Z,0
2017-01-17T17:32:28.118Z,0
2017-01-17T17:33:41.676Z,0
2017-01-17T17:34:55.621Z,0
2017-01-17T17:36:09.474Z,0
2017-01-17T17:37:23.744Z,0
2017-01-17T17:38:37.588Z,0
2017-01-17T17:39:51.074Z,0
2017-01-17T17:41:04.770Z,0
2017-01-17T17:42:18.250Z,0
2017-01-17T17:43:31.997Z,0
2017-01-17T17:44:45.630Z,0
2017-01-17T17:45:59.062Z,0
2017-01-17T17:47:12.599Z,0
2017-01-17T17:48:26.087Z,0